createdAt,value
2023-05-11T00:00:21.734Z,100027.75
2023-05-11T00:03:25.902Z,100027.88
2023-05-11T00:06:30.001Z,100025.50
2023-05-11T00:09:33.768Z,100033.69
2023-05-11T00:12:38.965Z,100033.94
2023-05-11T00:15:42.713Z,100037.00
2023-05-11T00:18:46.400Z,100041.00
2023-05-11T00:21:50.152Z,100044.97
2023-05-11T00:24:53.845Z,100042.28
2023-05-11T00:27:58.997Z,100048.50
2023-05-11T00:31:02.845Z,100044.50
2023-05-11T00:34:06.468Z,100037.00
2023-05-11T00:37:10.255Z,100045.50
2023-05-11T00:40:14.233Z,100054.75
2023-05-11T00:43:19.653Z,100052.81
2023-05-11T00:46:23.739Z,100049.72
2023-05-11T00:49:28.051Z,100052.34
2023-05-11T00:52:31.838Z,100053.63
2023-05-11T00:55:35.733Z,100051.44
2023-05-11T00:58:41.153Z,100050.19
2023-05-11T01:01:45.276Z,100055.44
2023-05-11T01:04:49.460Z,100051.84
2023-05-11T01:08:02.015Z,100053.06
2023-05-11T01:11:15.362Z,100048.53
2023-05-11T01:14:24.777Z,100055.69
2023-05-11T01:17:38.559Z,100046.75
2023-05-11T01:20:45.810Z,100063.38
2023-05-11T01:24:28.610Z,100063.06
2023-05-11T01:27:50.607Z,100070.25
2023-05-11T01:30:58.061Z,100065.94
2023-05-11T01:34:06.120Z,100065.78
2023-05-11T01:37:14.815Z,100066.69
2023-05-11T01:40:22.862Z,100071.94
2023-05-11T01:43:29.391Z,100057.75
2023-05-11T01:46:36.110Z,100066.97
2023-05-11T01:49:43.716Z,100065.00
2023-05-11T01:52:49.593Z,100060.38
2023-05-11T01:55:54.406Z,100061.06
2023-05-11T01:59:00.564Z,100061.47
2023-05-11T02:02:06.609Z,100061.34
2023-05-11T02:05:12.255Z,100064.72
2023-05-11T02:08:18.382Z,100057.34
2023-05-11T02:11:25.728Z,100053.59
2023-05-11T02:14:34.474Z,100052.66
2023-05-11T02:17:41.229Z,100050.06
2023-05-11T02:20:46.762Z,100063.53
2023-05-11T02:23:52.733Z,100057.56
2023-05-11T02:26:57.753Z,100053.66
2023-05-11T02:30:01.886Z,100051.53
2023-05-11T02:33:10.107Z,100056.72
2023-05-11T02:36:18.848Z,100057.94
2023-05-11T02:39:24.160Z,100065.03
2023-05-11T02:42:31.251Z,100059.13
2023-05-11T02:45:37.187Z,100058.75
2023-05-11T02:48:48.454Z,100056.78
2023-05-11T02:51:56.424Z,100060.97
2023-05-11T02:55:02.994Z,100057.69
2023-05-11T02:58:06.990Z,100074.47
2023-05-11T03:01:13.601Z,100066.03
2023-05-11T03:04:19.865Z,100072.78
2023-05-11T03:07:23.751Z,100074.06
2023-05-11T03:10:29.430Z,100078.44
2023-05-11T03:13:35.606Z,100071.56
2023-05-11T03:16:42.654Z,100080.28
2023-05-11T03:19:49.132Z,100075.47
2023-05-11T03:22:54.790Z,100068.47
2023-05-11T03:26:00.399Z,100077.78
2023-05-11T03:29:04.964Z,100075.53
2023-05-11T03:32:09.628Z,100080.25
2023-05-11T03:35:18.191Z,100086.50
2023-05-11T03:38:24.996Z,100087.59
2023-05-11T03:41:33.179Z,100088.78
2023-05-11T03:44:39.236Z,100082.13
2023-05-11T03:47:44.816Z,100083.38
2023-05-11T03:50:51.418Z,100089.31
2023-05-11T03:53:55.372Z,100084.69
2023-05-11T03:56:59.439Z,100079.63
2023-05-11T04:00:03.680Z,100085.25
2023-05-11T04:03:08.552Z,100089.72
2023-05-11T04:06:14.015Z,100093.19
2023-05-11T04:09:18.209Z,100090.78
2023-05-11T04:12:21.850Z,100091.38
2023-05-11T04:15:25.626Z,100096.53
2023-05-11T04:18:29.691Z,100098.94
2023-05-11T04:21:34.881Z,100096.59
2023-05-11T04:24:40.024Z,100094.63
2023-05-11T04:27:44.682Z,100092.16
2023-05-11T04:30:48.435Z,100100.94
2023-05-11T04:33:52.550Z,100102.63
2023-05-11T04:36:57.944Z,100108.50
2023-05-11T04:40:05.255Z,100107.44
2023-05-11T04:43:14.847Z,100106.19
2023-05-11T04:46:19.096Z,100100.69
2023-05-11T04:49:22.985Z,100101.78
2023-05-11T04:52:28.902Z,100099.63
2023-05-11T04:55:32.810Z,100095.56
2023-05-11T04:58:37.560Z,100107.28
2023-05-11T05:01:41.669Z,100111.75
2023-05-11T05:04:45.590Z,100099.72
2023-05-11T05:07:50.961Z,100110.41
2023-05-11T05:10:54.907Z,100108.94
2023-05-11T05:13:58.843Z,100107.13
2023-05-11T05:17:02.851Z,100115.56
2023-05-11T05:20:08.058Z,100116.78
2023-05-11T05:23:13.784Z,100106.84
2023-05-11T05:26:17.439Z,100111.84
2023-05-11T05:29:23.104Z,100109.50
2023-05-11T05:32:28.003Z,100110.59
2023-05-11T05:35:32.220Z,100111.75
2023-05-11T05:38:37.653Z,100115.34
2023-05-11T05:41:42.904Z,100122.16
2023-05-11T05:44:47.718Z,100116.97
2023-05-11T05:47:52.115Z,100124.72
2023-05-11T05:50:57.369Z,100129.09
2023-05-11T05:54:02.763Z,100136.91
2023-05-11T05:57:07.641Z,100133.50
2023-05-11T06:00:12.895Z,100127.06
2023-05-11T06:03:16.652Z,100130.66
2023-05-11T06:06:21.030Z,100132.09
2023-05-11T06:09:26.639Z,100137.13
2023-05-11T06:12:30.517Z,100134.09
2023-05-11T06:15:35.025Z,100129.53
2023-05-11T06:18:45.889Z,100131.28
2023-05-11T06:21:50.136Z,100128.41
2023-05-11T06:24:55.736Z,100138.88
2023-05-11T06:27:59.902Z,100132.69
2023-05-11T06:31:04.253Z,100130.16
2023-05-11T06:34:12.007Z,100135.75
2023-05-11T06:37:20.897Z,100127.22
2023-05-11T06:40:28.669Z,100119.81
2023-05-11T06:43:32.511Z,100130.09
2023-05-11T06:46:39.212Z,100123.16
2023-05-11T06:49:43.331Z,100131.09
2023-05-11T06:52:47.759Z,100126.47
2023-05-11T06:55:53.140Z,100133.84
2023-05-11T06:58:57.527Z,100131.84
2023-05-11T07:02:01.475Z,100137.50
2023-05-11T07:05:05.859Z,100126.09
2023-05-11T07:08:09.780Z,100122.34
2023-05-11T07:11:15.851Z,100126.22
2023-05-11T07:14:19.667Z,100113.16
2023-05-11T07:17:23.710Z,100108.66
2023-05-11T07:20:27.598Z,100117.22
2023-05-11T07:23:31.494Z,100115.63
2023-05-11T07:26:37.051Z,100118.47
2023-05-11T07:29:40.884Z,100119.84
2023-05-11T07:32:44.814Z,100119.59
2023-05-11T07:35:48.648Z,100125.41
2023-05-11T07:38:52.401Z,100126.72
2023-05-11T07:41:57.662Z,100119.06
2023-05-11T07:45:01.471Z,100129.50
2023-05-11T07:48:05.557Z,100123.66
2023-05-11T07:51:09.535Z,100119.38
2023-05-11T07:54:13.443Z,100107.56
2023-05-11T07:57:18.814Z,100103.22
2023-05-11T08:00:23.688Z,100113.78
2023-05-11T08:03:27.731Z,100118.25
2023-05-11T08:06:31.915Z,100110.91
2023-05-11T08:09:35.939Z,100117.88
2023-05-11T08:12:41.335Z,100120.66
2023-05-11T08:15:45.376Z,100115.25
2023-05-11T08:18:49.423Z,100116.75
2023-05-11T08:21:53.263Z,100110.47
2023-05-11T08:24:57.148Z,100115.06
2023-05-11T08:28:02.480Z,100123.88
2023-05-11T08:31:07.561Z,100116.59
2023-05-11T08:37:18.191Z,100124.19
2023-05-11T08:40:23.528Z,100113.16
2023-05-11T08:43:30.285Z,100117.59
2023-05-11T08:46:37.092Z,100125.44
2023-05-11T08:49:41.798Z,100115.00
2023-05-11T08:52:45.902Z,100111.38
2023-05-11T08:55:51.843Z,100113.38
2023-05-11T08:58:58.936Z,100113.63
2023-05-11T09:02:03.079Z,100114.66
2023-05-11T09:05:08.244Z,100112.34
2023-05-11T09:08:13.955Z,100113.69
2023-05-11T09:11:18.305Z,100107.94
2023-05-11T09:17:30.500Z,100095.53
2023-05-11T09:20:36.198Z,100098.16
2023-05-11T09:23:40.590Z,100095.75
2023-05-11T09:26:44.503Z,100085.00
2023-05-11T09:29:52.232Z,100078.53
2023-05-11T09:32:57.706Z,100079.16
2023-05-11T09:36:03.110Z,100062.75
2023-05-11T09:39:07.018Z,100061.06
2023-05-11T09:42:14.828Z,100066.06
2023-05-11T09:45:37.023Z,100057.25
2023-05-11T09:48:40.969Z,100065.75
2023-05-11T09:51:44.799Z,100058.34
2023-05-11T09:54:49.952Z,100062.94
2023-05-11T09:57:56.498Z,100066.25
2023-05-11T10:01:02.043Z,100058.25
2023-05-11T10:04:22.317Z,100056.44
2023-05-11T10:07:29.836Z,100051.94
2023-05-11T10:10:35.242Z,100054.59
2023-05-11T10:13:40.299Z,100054.97
2023-05-11T10:16:46.831Z,100051.09
2023-05-11T10:19:51.311Z,100041.88
2023-05-11T10:22:56.773Z,100042.84
2023-05-11T10:26:01.488Z,100041.72
2023-05-11T10:29:06.314Z,100035.78
2023-05-11T10:32:12.799Z,100025.44
2023-05-11T10:35:16.681Z,100023.50
2023-05-11T10:38:22.690Z,100023.56
2023-05-11T10:41:47.440Z,100027.03
2023-05-11T10:45:16.900Z,100038.47
2023-05-11T10:48:52.547Z,100033.31
2023-05-11T10:52:23.706Z,100014.72
2023-05-11T10:55:47.023Z,100020.56
2023-05-11T10:59:21.984Z,100022.19
2023-05-11T11:02:32.807Z,100013.78
2023-05-11T11:05:39.103Z,100021.34
2023-05-11T11:08:58.356Z,100012.53
2023-05-11T11:12:11.315Z,100004.25
2023-05-11T11:15:15.266Z,100013.28
2023-05-11T11:18:23.916Z,100004.44
2023-05-11T11:21:49.003Z,100000.78
2023-05-11T11:24:52.789Z,99993.97
2023-05-11T11:27:59.465Z,99985.72
2023-05-11T11:31:25.389Z,99989.88
2023-05-11T11:34:39.243Z,99982.47
2023-05-11T11:38:06.385Z,99981.31
2023-05-11T11:41:10.649Z,99984.91
2023-05-11T11:44:23.273Z,99974.94
2023-05-11T11:47:27.558Z,99974.78
2023-05-11T11:50:31.561Z,99961.38
2023-05-11T11:54:03.833Z,99956.03
2023-05-11T11:57:44.227Z,99958.94
2023-05-11T12:00:49.486Z,99968.97
2023-05-11T12:04:12.324Z,99959.78
2023-05-11T12:07:17.595Z,99951.69
2023-05-11T12:10:24.207Z,99946.94
2023-05-11T12:13:28.455Z,99941.34
2023-05-11T12:16:32.903Z,99937.34
2023-05-11T12:19:36.977Z,99938.16
2023-05-11T12:22:40.874Z,99932.22
2023-05-11T12:25:46.146Z,99935.47
2023-05-11T12:28:51.461Z,99928.34
2023-05-11T12:31:56.195Z,99921.13
2023-05-11T12:35:01.726Z,99909.81
2023-05-11T12:38:05.730Z,99910.38
2023-05-11T12:41:11.560Z,99901.69
2023-05-11T12:44:17.611Z,99894.94
2023-05-11T12:47:21.657Z,99901.28
2023-05-11T12:50:25.522Z,99888.69
2023-05-11T12:53:29.419Z,99878.09
2023-05-11T12:56:47.099Z,99879.66
2023-05-11T12:59:51.047Z,99873.75
2023-05-11T13:02:56.606Z,99879.19
2023-05-11T13:06:08.295Z,99877.66
2023-05-11T13:09:12.205Z,99873.66
2023-05-11T13:12:19.293Z,99878.25
2023-05-11T13:15:24.936Z,99870.25
2023-05-11T13:18:28.812Z,99866.84
2023-05-11T13:21:33.620Z,99860.50
2023-05-11T13:24:37.590Z,99860.63
2023-05-11T13:27:43.105Z,99854.78
2023-05-11T13:30:47.371Z,99864.69
2023-05-11T13:33:52.790Z,99868.63
2023-05-11T13:36:56.613Z,99862.81
2023-05-11T13:40:00.964Z,99850.84
2023-05-11T13:43:06.390Z,99845.56
2023-05-11T13:46:10.405Z,99848.59
2023-05-11T13:49:14.268Z,99847.22
2023-05-11T13:52:18.047Z,99835.03
2023-05-11T13:55:22.452Z,99848.34
2023-05-11T13:58:27.710Z,99848.97
2023-05-11T14:01:31.567Z,99847.28
2023-05-11T14:04:35.462Z,99841.81
2023-05-11T14:07:47.919Z,99847.19
2023-05-11T14:10:52.467Z,99846.84
2023-05-11T14:13:58.143Z,99843.56
2023-05-11T14:17:02.253Z,99832.97
2023-05-11T14:20:07.025Z,99835.72
2023-05-11T14:23:10.810Z,99835.25
2023-05-11T14:26:14.756Z,99838.03
2023-05-11T14:29:20.100Z,99840.22
2023-05-11T14:32:24.674Z,99837.47
2023-05-11T14:35:28.594Z,99847.09
2023-05-11T14:38:32.452Z,99842.03
2023-05-11T14:41:36.480Z,99845.84
2023-05-11T14:44:41.992Z,99849.34
2023-05-11T14:47:45.966Z,99851.19
2023-05-11T14:50:49.868Z,99844.06
2023-05-11T14:53:53.768Z,99831.84
2023-05-11T14:56:59.449Z,99837.19
2023-05-11T15:00:05.397Z,99835.69
2023-05-11T15:03:11.000Z,99839.59
2023-05-11T15:06:21.335Z,99841.88
2023-05-11T15:09:25.667Z,99837.88
2023-05-11T15:12:29.757Z,99832.69
2023-05-11T15:15:35.027Z,99832.81
2023-05-11T15:18:39.591Z,99833.88
2023-05-11T15:21:44.770Z,99825.16
2023-05-11T15:24:48.697Z,99822.16
2023-05-11T15:27:52.479Z,99820.44
2023-05-11T15:30:57.851Z,99824.25
2023-05-11T15:34:01.839Z,99827.91
2023-05-11T15:37:06.305Z,99827.00
2023-05-11T15:40:11.272Z,99827.84
2023-05-11T15:43:15.109Z,99828.38
2023-05-11T15:46:20.623Z,99830.38
2023-05-11T15:49:24.550Z,99822.94
2023-05-11T15:52:28.478Z,99828.03
2023-05-11T15:55:32.287Z,99818.63
2023-05-11T15:58:36.198Z,99820.56
2023-05-11T16:01:41.596Z,99823.56
2023-05-11T16:04:45.747Z,99832.03
2023-05-11T16:07:49.655Z,99825.81
2023-05-11T16:10:53.602Z,99826.47
2023-05-11T16:13:57.652Z,99830.72
2023-05-11T16:17:03.357Z,99825.09
2023-05-11T16:20:08.553Z,99828.38
2023-05-11T16:23:13.050Z,99834.47
2023-05-11T16:26:17.101Z,99832.53
2023-05-11T16:29:21.009Z,99835.28
2023-05-11T16:32:26.602Z,99832.75
2023-05-11T16:35:31.002Z,99832.84
2023-05-11T16:38:34.845Z,99846.91
2023-05-11T16:41:38.649Z,99847.28
2023-05-11T16:44:42.530Z,99844.94
2023-05-11T16:47:47.903Z,99855.13
2023-05-11T16:50:52.624Z,99852.38
2023-05-11T16:53:57.549Z,99855.63
2023-05-11T16:57:01.502Z,99863.69
2023-05-11T17:00:06.666Z,99857.41
2023-05-11T17:03:12.014Z,99867.16
2023-05-11T17:06:19.025Z,99869.44
2023-05-11T17:09:24.552Z,99871.31
2023-05-11T17:12:30.560Z,99871.69
2023-05-11T17:15:34.495Z,99872.84
2023-05-11T17:18:39.941Z,99878.72
2023-05-11T17:21:43.774Z,99889.25
2023-05-11T17:24:48.271Z,99888.09
2023-05-11T17:27:52.195Z,99889.38
2023-05-11T17:30:56.123Z,99888.91
2023-05-11T17:34:01.696Z,99887.16
2023-05-11T17:37:06.043Z,99892.28
2023-05-11T17:40:11.045Z,99890.31
2023-05-11T17:43:14.912Z,99896.25
2023-05-11T17:46:19.427Z,99889.72
2023-05-11T17:49:24.792Z,99895.66
2023-05-11T17:52:28.723Z,99898.56
2023-05-11T17:55:32.691Z,99905.66
2023-05-11T17:58:36.649Z,99910.94
2023-05-11T18:01:40.426Z,99904.06
2023-05-11T18:04:45.849Z,99915.09
2023-05-11T18:07:50.262Z,99926.09
2023-05-11T18:10:54.185Z,99926.41
2023-05-11T18:13:58.045Z,99926.41
2023-05-11T18:17:01.912Z,99935.47
2023-05-11T18:20:09.563Z,99933.66
2023-05-11T18:23:13.442Z,99951.91
2023-05-11T18:26:18.501Z,99947.09
2023-05-11T18:29:22.467Z,99953.53
2023-05-11T18:32:26.463Z,99956.81
2023-05-11T18:35:31.811Z,99957.66
2023-05-11T18:38:35.799Z,99966.50
2023-05-11T18:41:39.672Z,99970.88
2023-05-11T18:44:43.491Z,99981.78
2023-05-11T18:47:47.421Z,99977.69
2023-05-11T18:50:57.776Z,99982.88
2023-05-11T18:54:01.648Z,99987.47
2023-05-11T18:57:06.173Z,99988.56
2023-05-11T19:00:12.147Z,99991.47
2023-05-11T19:03:16.483Z,99993.81
2023-05-11T19:06:21.999Z,100006.56
2023-05-11T19:09:25.921Z,100004.63
2023-05-11T19:12:29.956Z,100000.69
2023-05-11T19:15:34.444Z,100006.31
2023-05-11T19:18:40.201Z,100013.56
2023-05-11T19:21:46.256Z,100018.56
2023-05-11T19:24:50.158Z,100009.53
2023-05-11T19:27:53.984Z,100021.69
2023-05-11T19:31:04.949Z,100022.72
2023-05-11T19:34:08.881Z,100021.19
2023-05-11T19:37:14.135Z,100028.38
2023-05-11T19:40:44.730Z,100029.41
2023-05-11T19:43:43.047Z,100029.56
2023-05-11T19:46:47.579Z,100029.09
2023-05-11T19:49:51.831Z,100033.41
2023-05-11T19:52:57.211Z,100033.88
2023-05-11T19:56:01.105Z,100034.69
2023-05-11T19:59:05.053Z,100043.34
2023-05-11T20:02:09.064Z,100035.22
2023-05-11T20:05:13.000Z,100037.94
2023-05-11T20:08:18.348Z,100041.84
2023-05-11T20:11:22.795Z,100039.00
2023-05-11T20:14:26.573Z,100048.03
2023-05-11T20:17:30.417Z,100042.84
2023-05-11T20:20:35.989Z,100041.66
2023-05-11T20:23:41.264Z,100043.13
2023-05-11T20:26:45.105Z,100031.66
2023-05-11T20:29:48.924Z,100044.53
2023-05-11T20:36:00.504Z,100039.31
2023-05-11T20:39:05.989Z,100037.31
2023-05-11T20:42:10.415Z,100044.94
2023-05-11T20:45:14.310Z,100046.44
2023-05-11T20:48:23.362Z,100049.88
2023-05-11T20:51:36.940Z,100046.28
2023-05-11T20:54:42.488Z,100034.06
2023-05-11T20:57:46.276Z,100039.38
2023-05-11T21:00:50.536Z,100045.69
2023-05-11T21:03:54.379Z,100041.03
2023-05-11T21:06:58.580Z,100056.13
2023-05-11T21:10:03.942Z,100041.69
2023-05-11T21:13:07.876Z,100045.63
2023-05-11T21:16:11.862Z,100049.03
2023-05-11T21:19:16.845Z,100052.47
2023-05-11T21:22:20.806Z,100047.16
2023-05-11T21:25:26.174Z,100046.06
2023-05-11T21:28:31.105Z,100046.41
2023-05-11T21:31:34.880Z,100053.06
2023-05-11T21:34:38.753Z,100048.16
2023-05-11T21:37:43.763Z,100052.91
2023-05-11T21:40:53.878Z,100056.19
2023-05-11T21:43:57.714Z,100055.28
2023-05-11T21:47:01.542Z,100054.75
2023-05-11T21:50:05.576Z,100061.44
2023-05-11T21:53:09.400Z,100054.88
2023-05-11T21:56:14.834Z,100058.16
2023-05-11T21:59:18.939Z,100051.13
2023-05-11T22:02:25.093Z,100056.03
2023-05-11T22:05:29.121Z,100059.72
2023-05-11T22:08:32.929Z,100055.03
2023-05-11T22:11:40.417Z,100050.03
2023-05-11T22:14:44.367Z,100059.91
2023-05-11T22:17:48.412Z,100053.88
2023-05-11T22:20:52.296Z,100055.16
2023-05-11T22:23:56.091Z,100051.31
2023-05-11T22:27:01.580Z,100054.81
2023-05-11T22:30:06.303Z,100053.66
2023-05-11T22:33:10.180Z,100054.06
2023-05-11T22:36:14.122Z,100057.66
2023-05-11T22:39:17.974Z,100052.28
2023-05-11T22:42:23.685Z,100049.66
2023-05-11T22:45:27.428Z,100048.03
2023-05-11T22:48:31.452Z,100049.34
2023-05-11T22:51:35.304Z,100043.16
2023-05-11T22:54:39.098Z,100041.78
2023-05-11T22:57:44.327Z,100042.63
2023-05-11T23:00:48.272Z,100038.56
2023-05-11T23:03:52.154Z,100042.72
2023-05-11T23:06:56.018Z,100035.47
2023-05-11T23:09:59.846Z,100050.72
2023-05-11T23:13:06.199Z,100037.22
2023-05-11T23:16:10.412Z,100035.88
2023-05-11T23:19:14.348Z,100029.00
2023-05-11T23:22:18.156Z,100037.16
2023-05-11T23:25:21.996Z,100038.22
2023-05-11T23:28:27.502Z,100041.50
2023-05-11T23:31:32.788Z,100040.66
2023-05-11T23:34:37.866Z,100038.84
2023-05-11T23:37:41.850Z,100044.28
2023-05-11T23:40:45.779Z,100044.97
2023-05-11T23:43:51.079Z,100046.81
2023-05-11T23:46:55.050Z,100039.50
2023-05-11T23:49:59.053Z,100048.44
2023-05-11T23:53:02.969Z,100046.19
2023-05-11T23:56:07.571Z,100046.69
2023-05-11T23:59:12.854Z,100045.56
